Strona główna
METAR-TAF:

METAR-TAF

Lotnisko :

São Gabriel da Cachoeira, Amazonas, Brazylia

Szerokość geograficzna: 00-08S, Długość geograficzna: 067-05W, wysokość: 90 m

Aktualna obserwacja pogody

Raport powstał 1 godzina i 11 minut temu, godzina 17:00 UTC
Wiatr 4 kt od południowo-południowy zachód
Temperatura 30°C
Wilgotność 66%
Ciśnienie 1012 hPa
Widzialność 10 km lub więcej
Rozproszone chmury na wysokości 2500 ft

METAR: SBUA 161700Z 20004KT 9999 SCT025 30/23 Q1012

czas: 14:11 (18:11 UTC)


TAF: brakujący

Obserwacja i prognoza pogody dla ponad 4000 lotnisk (raport METAR i TAF).

Dostępne stacje oznaczono żółtymi i czerwonymi punktami na mapie.

Najedź kursorem aby zobaczyć nazwę stacji.

Kliknij aby zobaczyć obserwacje i prognozy pogody.

Aby zmienić mapę: kliknij na zielony przycisk z czarnym krzyżykiem, aby powiększyć; na zielony przycisk z myślnikiem, aby pomniejszyć; na zielone strzałki, aby przejść do map sąsiednich.


METAR-TAF: